createdAt,value
2023-01-01T00:02:17.272Z,12.70
2023-01-01T00:04:44.606Z,12.75
2023-01-01T00:07:11.591Z,12.87
2023-01-01T00:09:57.091Z,12.80
2023-01-01T00:12:24.133Z,12.89
2023-01-01T00:14:51.147Z,12.91
2023-01-01T00:17:18.266Z,12.78
2023-01-01T00:19:45.302Z,12.74
2023-01-01T00:22:52.067Z,12.76
2023-01-01T00:24:59.574Z,12.84
2023-01-01T00:27:26.666Z,12.82
2023-01-01T00:29:53.756Z,12.71
2023-01-01T00:32:23.974Z,12.83
2023-01-01T00:34:51.435Z,12.92
2023-01-01T00:37:18.604Z,12.83
2023-01-01T00:39:45.939Z,12.87
2023-01-01T00:42:12.904Z,12.93
2023-01-01T00:44:40.024Z,12.95
2023-01-01T00:47:07.080Z,12.94
2023-01-01T00:49:34.303Z,12.78
2023-01-01T00:52:01.314Z,12.87
2023-01-01T00:54:28.449Z,12.86
2023-01-01T00:56:56.013Z,13.01
2023-01-01T00:59:28.485Z,12.95
2023-01-01T01:01:56.451Z,13.05
2023-01-01T01:04:23.895Z,13.17
2023-01-01T01:06:51.191Z,13.12
2023-01-01T01:09:18.469Z,13.25
2023-01-01T01:11:45.509Z,13.09
2023-01-01T01:14:12.539Z,12.98
2023-01-01T01:16:39.809Z,12.93
2023-01-01T01:19:07.569Z,12.78
2023-01-01T01:21:38.156Z,12.74
2023-01-01T01:24:05.526Z,12.77
2023-01-01T01:26:34.197Z,12.74
2023-01-01T01:29:01.461Z,12.75
2023-01-01T01:31:30.879Z,12.79
2023-01-01T01:33:58.312Z,12.83
2023-01-01T01:36:26.751Z,12.73
2023-01-01T01:38:54.150Z,12.91
2023-01-01T01:41:28.945Z,12.74
2023-01-01T01:45:04.122Z,12.80
2023-01-01T01:47:45.830Z,12.84
2023-01-01T01:50:26.757Z,12.79
2023-01-01T01:53:16.083Z,12.76
2023-01-01T01:55:53.756Z,12.81
2023-01-01T01:58:21.003Z,12.76
2023-01-01T02:00:48.129Z,12.86
2023-01-01T02:03:26.633Z,12.94
2023-01-01T02:05:54.347Z,13.03
2023-01-01T02:08:22.076Z,12.92
2023-01-01T02:10:49.388Z,12.77
2023-01-01T02:13:16.778Z,12.69
2023-01-01T02:16:05.325Z,12.71
2023-01-01T02:18:48.725Z,12.83
2023-01-01T02:21:32.844Z,12.92
2023-01-01T02:24:21.731Z,12.82
2023-01-01T02:27:02.452Z,12.79
2023-01-01T02:29:41.600Z,12.80
2023-01-01T02:32:19.976Z,12.87
2023-01-01T02:34:57.627Z,12.83
2023-01-01T02:37:27.696Z,12.71
2023-01-01T02:39:59.064Z,12.68
2023-01-01T02:42:29.324Z,12.64
2023-01-01T02:44:59.464Z,12.72
2023-01-01T02:47:26.557Z,12.80
2023-01-01T02:50:04.223Z,12.77
2023-01-01T02:52:52.839Z,12.66
2023-01-01T02:55:32.920Z,12.60
2023-01-01T02:58:46.218Z,12.58
2023-01-01T03:01:23.200Z,12.55
2023-01-01T03:04:15.401Z,12.56
2023-01-01T03:06:55.653Z,12.74
2023-01-01T03:09:47.139Z,12.68
2023-01-01T03:12:40.473Z,12.74
2023-01-01T03:15:11.667Z,12.80
2023-01-01T03:18:05.586Z,12.92
2023-01-01T03:20:36.729Z,12.49
2023-01-01T03:23:09.112Z,12.54
2023-01-01T03:25:48.524Z,12.45
2023-01-01T03:28:21.148Z,12.52
2023-01-01T03:30:51.867Z,12.47
2023-01-01T03:33:29.290Z,12.40
2023-01-01T03:36:03.733Z,12.38
2023-01-01T03:38:37.842Z,12.18
2023-01-01T03:41:21.500Z,12.24
2023-01-01T03:44:19.418Z,12.21
2023-01-01T03:46:46.946Z,12.29
2023-01-01T03:49:15.141Z,12.09
2023-01-01T03:52:23.716Z,12.09
2023-01-01T03:54:59.390Z,12.02
2023-01-01T03:57:38.112Z,12.10
2023-01-01T04:00:16.738Z,12.18
2023-01-01T04:02:50.138Z,12.19
2023-01-01T04:05:19.046Z,12.26
2023-01-01T04:10:18.866Z,11.93
2023-01-01T04:12:55.896Z,12.19
2023-01-01T04:15:25.952Z,11.88
2023-01-01T04:17:53.772Z,11.92
2023-01-01T04:20:22.176Z,11.63
2023-01-01T04:22:49.649Z,11.65
2023-01-01T04:25:17.700Z,11.75
2023-01-01T04:27:45.048Z,11.89
2023-01-01T04:30:14.121Z,11.76
2023-01-01T04:32:41.467Z,11.67
2023-01-01T04:35:13.054Z,11.54
2023-01-01T04:37:41.844Z,11.61
2023-01-01T04:40:10.549Z,11.41
2023-01-01T04:42:37.655Z,11.34
2023-01-01T04:45:05.492Z,11.66
2023-01-01T04:47:33.494Z,11.47
2023-01-01T04:50:00.563Z,11.36
2023-01-01T04:52:27.924Z,11.38
2023-01-01T04:54:58.046Z,11.57
2023-01-01T04:57:25.090Z,11.84
2023-01-01T04:59:52.242Z,11.71
2023-01-01T05:02:19.596Z,11.80
2023-01-01T05:04:46.757Z,11.76
2023-01-01T05:07:13.990Z,11.51
2023-01-01T05:09:41.224Z,11.70
2023-01-01T05:12:08.494Z,11.71
2023-01-01T05:14:35.646Z,11.62
2023-01-01T05:17:02.723Z,11.67
2023-01-01T05:19:29.804Z,11.64
2023-01-01T05:21:56.918Z,11.80
2023-01-01T05:24:24.007Z,11.79
2023-01-01T05:26:51.078Z,11.80
2023-01-01T05:29:19.883Z,11.63
2023-01-01T05:31:47.143Z,11.68
2023-01-01T05:34:14.284Z,11.75
2023-01-01T05:36:41.519Z,11.89
2023-01-01T05:39:10.933Z,11.76
2023-01-01T05:41:37.974Z,11.75
2023-01-01T05:44:09.223Z,11.65
2023-01-01T05:46:37.313Z,11.73
2023-01-01T05:49:11.956Z,11.87
2023-01-01T05:54:05.155Z,11.99
2023-01-01T05:56:32.346Z,12.14
2023-01-01T05:58:59.517Z,11.94
2023-01-01T06:01:29.304Z,11.73
2023-01-01T06:03:57.739Z,11.63
2023-01-01T06:06:30.600Z,11.74
2023-01-01T06:08:59.817Z,11.76
2023-01-01T06:11:29.209Z,11.79
2023-01-01T06:13:58.546Z,11.87
2023-01-01T06:16:27.305Z,11.91
2023-01-01T06:18:54.344Z,11.79
2023-01-01T06:21:24.888Z,11.56
2023-01-01T06:23:52.805Z,11.81
2023-01-01T06:26:25.986Z,11.86
2023-01-01T06:28:53.279Z,11.86
2023-01-01T06:31:22.267Z,12.11
2023-01-01T06:33:51.061Z,12.18
2023-01-01T06:36:20.608Z,12.17
2023-01-01T06:38:49.952Z,12.11
2023-01-01T06:41:22.074Z,12.28
2023-01-01T06:43:49.810Z,12.37
2023-01-01T06:46:22.611Z,12.54
2023-01-01T06:48:51.667Z,12.46
2023-01-01T06:51:22.036Z,12.59
2023-01-01T06:53:50.086Z,12.77
2023-01-01T06:56:18.322Z,12.55
2023-01-01T06:58:45.881Z,12.69
2023-01-01T07:01:16.229Z,12.53
2023-01-01T07:03:45.094Z,12.47
2023-01-01T07:06:12.184Z,12.57
2023-01-01T07:08:39.327Z,12.51
2023-01-01T07:11:06.443Z,12.49
2023-01-01T07:13:33.477Z,12.72
2023-01-01T07:16:01.476Z,12.89
2023-01-01T07:18:30.636Z,12.72
2023-01-01T07:21:02.812Z,12.97
2023-01-01T07:23:31.802Z,12.97
2023-01-01T07:25:59.182Z,12.71
2023-01-01T07:28:27.210Z,12.76
2023-01-01T07:30:54.626Z,12.81
2023-01-01T07:33:23.975Z,12.73
2023-01-01T07:35:51.160Z,12.72
2023-01-01T07:38:18.555Z,12.91
2023-01-01T07:40:45.696Z,12.87
2023-01-01T07:43:13.934Z,12.76
2023-01-01T07:45:41.642Z,12.75
2023-01-01T07:48:14.955Z,12.40
2023-01-01T07:50:43.322Z,12.41
2023-01-01T07:53:10.650Z,12.46
2023-01-01T07:55:37.918Z,12.54
2023-01-01T07:58:05.169Z,12.61
2023-01-01T08:00:32.160Z,12.59
2023-01-01T08:02:59.824Z,12.58
2023-01-01T08:05:27.406Z,12.66
2023-01-01T08:07:54.835Z,12.79
2023-01-01T08:10:22.599Z,12.79
2023-01-01T08:12:49.776Z,12.78
2023-01-01T08:15:17.247Z,12.79
2023-01-01T08:17:46.904Z,12.86
2023-01-01T08:20:15.080Z,12.81
2023-01-01T08:22:42.236Z,12.88
2023-01-01T08:25:09.672Z,12.90
2023-01-01T08:27:38.447Z,12.87
2023-01-01T08:30:06.140Z,12.87
2023-01-01T08:32:33.109Z,13.01
2023-01-01T08:35:00.322Z,12.98
2023-01-01T08:37:27.611Z,13.07
2023-01-01T08:39:54.920Z,13.11
2023-01-01T08:42:22.027Z,13.16
2023-01-01T08:44:49.192Z,13.29
2023-01-01T08:47:20.630Z,13.29
2023-01-01T08:49:47.731Z,13.30
2023-01-01T08:52:15.529Z,13.30
2023-01-01T08:54:42.432Z,13.35
2023-01-01T08:57:09.793Z,13.69
2023-01-01T08:59:37.036Z,13.68
2023-01-01T09:02:04.981Z,13.72
2023-01-01T09:04:32.558Z,13.75
2023-01-01T09:06:59.660Z,13.87
2023-01-01T09:09:31.380Z,13.87
2023-01-01T09:12:08.697Z,13.88
2023-01-01T09:14:36.312Z,13.89
2023-01-01T09:17:03.632Z,14.01
2023-01-01T09:19:30.989Z,14.06
2023-01-01T09:21:58.471Z,14.03
2023-01-01T09:24:25.593Z,14.04
2023-01-01T09:26:52.951Z,14.02
2023-01-01T09:29:22.139Z,14.06
2023-01-01T09:31:49.570Z,14.01
2023-01-01T09:34:18.314Z,14.05
2023-01-01T09:36:48.539Z,14.13
2023-01-01T09:39:17.783Z,14.15
2023-01-01T09:42:06.200Z,14.21
2023-01-01T09:44:46.481Z,14.13
2023-01-01T09:47:33.253Z,14.23
2023-01-01T09:50:05.320Z,14.16
2023-01-01T09:52:44.291Z,14.17
2023-01-01T09:55:22.799Z,14.17
2023-01-01T09:57:50.098Z,14.16
2023-01-01T10:00:19.170Z,14.19
2023-01-01T10:02:56.354Z,14.25
2023-01-01T10:05:44.342Z,14.30
2023-01-01T10:08:19.611Z,14.27
2023-01-01T10:11:16.439Z,14.31
2023-01-01T10:13:47.304Z,14.21
2023-01-01T10:16:24.788Z,14.34
2023-01-01T10:18:56.213Z,14.32
2023-01-01T10:21:39.578Z,14.22
2023-01-01T10:24:48.966Z,14.27
2023-01-01T10:27:37.073Z,14.23
2023-01-01T10:30:14.386Z,14.20
2023-01-01T10:32:43.611Z,14.18
2023-01-01T10:35:24.090Z,14.16
2023-01-01T10:37:55.521Z,14.14
2023-01-01T10:40:25.111Z,14.17
2023-01-01T10:42:55.029Z,14.19
2023-01-01T10:45:34.571Z,14.17
2023-01-01T10:48:16.922Z,14.21
2023-01-01T10:50:49.210Z,14.15
2023-01-01T10:53:38.175Z,14.16
2023-01-01T10:56:18.894Z,14.10
2023-01-01T10:58:48.881Z,14.14
2023-01-01T11:01:19.230Z,14.16
2023-01-01T11:04:20.969Z,14.15
2023-01-01T11:06:48.557Z,14.18
2023-01-01T11:09:25.873Z,14.15
2023-01-01T11:12:15.158Z,14.16
2023-01-01T11:14:58.234Z,14.20
2023-01-01T11:17:34.721Z,14.21
2023-01-01T11:20:04.325Z,14.33
2023-01-01T11:22:50.615Z,14.41
2023-01-01T11:25:27.721Z,14.45
2023-01-01T11:28:23.902Z,14.52
2023-01-01T11:31:20.291Z,14.48
2023-01-01T11:33:55.432Z,14.51
2023-01-01T11:36:29.786Z,14.53
2023-01-01T11:39:27.180Z,14.61
2023-01-01T11:41:57.275Z,14.72
2023-01-01T11:44:38.138Z,14.72
2023-01-01T11:47:07.402Z,14.82
2023-01-01T11:49:35.429Z,14.83
2023-01-01T11:52:54.786Z,15.04
2023-01-01T11:55:45.999Z,15.24
2023-01-01T11:58:24.838Z,15.21
2023-01-01T12:00:56.835Z,15.28
2023-01-01T12:03:32.916Z,15.47
2023-01-01T12:06:05.294Z,15.42
2023-01-01T12:08:42.404Z,15.52
2023-01-01T12:11:26.290Z,15.35
2023-01-01T12:14:05.432Z,15.32
2023-01-01T12:17:03.183Z,15.49
2023-01-01T12:19:34.124Z,15.42
2023-01-01T12:22:01.467Z,15.36
2023-01-01T12:24:34.660Z,15.25
2023-01-01T12:27:10.472Z,15.23
2023-01-01T12:29:46.727Z,15.21
2023-01-01T12:32:28.735Z,15.21
2023-01-01T12:35:13.234Z,15.32
2023-01-01T12:37:47.652Z,15.25
2023-01-01T12:40:30.292Z,15.25
2023-01-01T12:43:03.342Z,15.30
2023-01-01T12:45:57.306Z,15.08
2023-01-01T12:48:33.347Z,15.09
2023-01-01T12:51:05.770Z,15.09
2023-01-01T12:53:44.817Z,15.02
2023-01-01T12:56:49.501Z,15.02
2023-01-01T12:59:26.765Z,14.90
2023-01-01T13:02:00.951Z,14.93
2023-01-01T13:04:30.428Z,14.90
2023-01-01T13:07:04.653Z,14.92
2023-01-01T13:09:39.000Z,14.87
2023-01-01T13:12:16.785Z,14.77
2023-01-01T13:14:46.750Z,14.92
2023-01-01T13:17:32.178Z,14.89
2023-01-01T13:20:15.387Z,14.87
2023-01-01T13:22:48.363Z,14.82
2023-01-01T13:25:16.336Z,14.74
2023-01-01T13:28:03.642Z,14.73
2023-01-01T13:30:49.859Z,14.68
2023-01-01T13:33:29.314Z,14.63
2023-01-01T13:36:21.428Z,14.47
2023-01-01T13:38:51.597Z,14.49
2023-01-01T13:41:40.423Z,14.49
2023-01-01T13:44:09.248Z,14.53
2023-01-01T13:46:43.792Z,14.51
2023-01-01T13:49:39.239Z,14.38
2023-01-01T13:52:45.473Z,14.34
2023-01-01T13:55:45.061Z,14.28
2023-01-01T13:58:30.799Z,14.27
2023-01-01T14:01:18.947Z,14.19
2023-01-01T14:03:49.933Z,14.15
2023-01-01T14:06:29.068Z,14.15
2023-01-01T14:09:17.766Z,14.13
2023-01-01T14:11:44.905Z,14.11
2023-01-01T14:14:28.905Z,14.06
2023-01-01T14:16:59.000Z,14.11
2023-01-01T14:19:28.351Z,14.03
2023-01-01T14:21:55.925Z,14.03
2023-01-01T14:24:25.325Z,14.02
2023-01-01T14:26:55.171Z,13.99
2023-01-01T14:29:29.948Z,13.98
2023-01-01T14:32:14.613Z,13.94
2023-01-01T14:34:58.729Z,13.97
2023-01-01T14:37:28.313Z,13.95
2023-01-01T14:40:08.188Z,13.98
2023-01-01T14:42:36.962Z,13.82
2023-01-01T14:45:04.869Z,13.77
2023-01-01T14:47:38.868Z,13.75
2023-01-01T14:50:14.936Z,13.68
2023-01-01T14:52:51.184Z,13.54
2023-01-01T14:55:26.726Z,13.56
2023-01-01T14:58:00.945Z,13.46
2023-01-01T15:00:33.014Z,13.37
2023-01-01T15:03:22.913Z,13.39
2023-01-01T15:06:03.634Z,13.40
2023-01-01T15:08:30.865Z,13.32
2023-01-01T15:10:58.302Z,13.37
2023-01-01T15:13:49.746Z,13.28
2023-01-01T15:16:22.976Z,13.20
2023-01-01T15:18:53.380Z,13.19
2023-01-01T15:21:41.636Z,13.19
2023-01-01T15:24:24.224Z,13.13
2023-01-01T15:26:56.449Z,13.12
2023-01-01T15:29:32.806Z,13.12
2023-01-01T15:32:10.876Z,13.22
2023-01-01T15:34:52.891Z,13.12
2023-01-01T15:37:44.591Z,13.09
2023-01-01T15:40:14.964Z,13.07
2023-01-01T15:43:06.675Z,13.06
2023-01-01T15:45:39.667Z,13.03
2023-01-01T15:48:06.921Z,13.03
2023-01-01T15:50:38.440Z,13.03
2023-01-01T15:53:15.648Z,13.08
2023-01-01T15:55:46.992Z,13.06
2023-01-01T15:58:22.433Z,13.02
2023-01-01T16:00:59.857Z,13.04
2023-01-01T16:03:28.930Z,12.94
2023-01-01T16:05:56.723Z,12.90
2023-01-01T16:08:24.890Z,12.78
2023-01-01T16:10:52.796Z,12.71
2023-01-01T16:13:20.143Z,12.75
2023-01-01T16:15:57.091Z,12.70
2023-01-01T16:18:29.325Z,12.74
2023-01-01T16:20:56.963Z,12.72
2023-01-01T16:23:24.340Z,12.69
2023-01-01T16:25:51.507Z,12.59
2023-01-01T16:28:18.829Z,12.61
2023-01-01T16:30:49.681Z,12.57
2023-01-01T16:33:19.554Z,12.59
2023-01-01T16:35:47.204Z,12.57
2023-01-01T16:38:17.283Z,12.50
2023-01-01T16:40:44.616Z,12.38
2023-01-01T16:43:16.784Z,12.30
2023-01-01T16:45:44.865Z,12.29
2023-01-01T16:48:12.229Z,12.25
2023-01-01T16:50:39.697Z,12.20
2023-01-01T16:53:06.768Z,12.14
2023-01-01T16:55:33.977Z,12.10
2023-01-01T16:58:46.717Z,12.15
2023-01-01T17:00:48.547Z,12.14
2023-01-01T17:03:15.943Z,12.04
2023-01-01T17:05:44.565Z,11.98
2023-01-01T17:08:12.422Z,12.31
2023-01-01T17:10:39.648Z,12.26
2023-01-01T17:13:07.819Z,12.22
2023-01-01T17:15:36.040Z,12.22
2023-01-01T17:18:03.326Z,12.22
2023-01-01T17:20:30.575Z,12.28
2023-01-01T17:23:00.605Z,12.28
2023-01-01T17:25:27.783Z,12.26
2023-01-01T17:27:54.948Z,12.25
2023-01-01T17:30:22.066Z,12.11
2023-01-01T17:32:49.219Z,12.07
2023-01-01T17:35:16.316Z,12.05
2023-01-01T17:37:43.347Z,12.00
2023-01-01T17:40:10.800Z,12.05
2023-01-01T17:42:37.872Z,11.98
2023-01-01T17:45:05.537Z,11.90
2023-01-01T17:47:33.610Z,11.74
2023-01-01T17:50:00.855Z,11.82
2023-01-01T17:52:28.469Z,11.85
2023-01-01T17:54:55.756Z,11.87
2023-01-01T17:57:22.981Z,11.80
2023-01-01T17:59:50.097Z,11.66
2023-01-01T18:02:17.372Z,11.56
2023-01-01T18:04:45.345Z,11.72
2023-01-01T18:07:12.383Z,11.79
2023-01-01T18:09:39.773Z,11.72
2023-01-01T18:12:07.114Z,11.58
2023-01-01T18:14:34.104Z,11.58
2023-01-01T18:17:02.352Z,11.61
2023-01-01T18:19:29.722Z,11.76
2023-01-01T18:21:56.778Z,11.56
2023-01-01T18:24:23.968Z,11.44
2023-01-01T18:26:51.182Z,11.43
2023-01-01T18:29:18.281Z,11.47
2023-01-01T18:31:45.609Z,11.52
2023-01-01T18:34:12.885Z,11.68
2023-01-01T18:36:41.271Z,11.70
2023-01-01T18:39:16.831Z,11.82
2023-01-01T18:42:01.098Z,11.81
2023-01-01T18:44:34.521Z,11.77
2023-01-01T18:47:04.681Z,11.67
2023-01-01T18:49:44.984Z,11.73
2023-01-01T18:52:33.882Z,11.56
2023-01-01T18:55:10.737Z,11.47
2023-01-01T18:57:37.909Z,11.74
2023-01-01T19:00:28.740Z,11.77
2023-01-01T19:03:04.542Z,11.73
2023-01-01T19:05:35.850Z,11.74
2023-01-01T19:08:13.213Z,11.79
2023-01-01T19:10:50.847Z,11.78
2023-01-01T19:13:30.049Z,11.75
2023-01-01T19:16:23.956Z,11.93
2023-01-01T19:18:53.059Z,11.92
2023-01-01T19:21:23.137Z,12.10
2023-01-01T19:23:52.984Z,12.06
2023-01-01T19:26:33.596Z,12.09
2023-01-01T19:29:17.345Z,12.11
2023-01-01T19:31:48.978Z,12.31
2023-01-01T19:34:17.238Z,12.29
2023-01-01T19:36:44.648Z,12.34
2023-01-01T19:39:11.817Z,12.34
2023-01-01T19:41:39.018Z,12.21
2023-01-01T19:44:10.080Z,12.13
2023-01-01T19:46:39.254Z,12.03
2023-01-01T19:49:09.430Z,11.99
2023-01-01T19:51:36.467Z,12.03
2023-01-01T19:54:03.867Z,11.92
2023-01-01T19:56:30.881Z,11.95
2023-01-01T19:58:57.955Z,12.05
2023-01-01T20:01:25.227Z,11.97
2023-01-01T20:03:54.572Z,11.80
2023-01-01T20:06:22.174Z,11.92
2023-01-01T20:08:49.193Z,11.98
2023-01-01T20:11:16.499Z,11.85
2023-01-01T20:13:43.504Z,11.62
2023-01-01T20:16:10.643Z,11.62
2023-01-01T20:18:37.873Z,11.70
2023-01-01T20:21:26.490Z,11.92
2023-01-01T20:23:54.855Z,12.03
2023-01-01T20:26:23.964Z,12.41
2023-01-01T20:29:09.938Z,12.61
2023-01-01T20:31:37.423Z,12.56
2023-01-01T20:34:04.941Z,12.49
2023-01-01T20:36:50.617Z,12.70
2023-01-01T20:39:17.651Z,12.59
2023-01-01T20:41:44.746Z,12.50
2023-01-01T20:44:12.074Z,12.51
2023-01-01T20:46:39.500Z,12.61
2023-01-01T20:49:06.526Z,12.72
2023-01-01T20:51:33.994Z,12.67
2023-01-01T20:54:00.979Z,12.72
2023-01-01T20:56:28.220Z,12.84
2023-01-01T20:59:00.175Z,12.96
2023-01-01T21:01:30.348Z,13.17
2023-01-01T21:03:57.639Z,13.10
2023-01-01T21:06:25.057Z,13.21
2023-01-01T21:08:52.939Z,13.28
2023-01-01T21:11:20.547Z,13.18
2023-01-01T21:13:51.199Z,13.42
2023-01-01T21:16:25.185Z,13.57
2023-01-01T21:18:52.380Z,13.57
2023-01-01T21:21:22.363Z,13.75
2023-01-01T21:23:51.119Z,13.71
2023-01-01T21:26:25.205Z,13.62
2023-01-01T21:28:52.321Z,13.85
2023-01-01T21:31:19.325Z,13.99
2023-01-01T21:33:46.557Z,13.87
2023-01-01T21:36:21.698Z,13.82
2023-01-01T21:38:51.980Z,13.90
2023-01-01T21:41:24.015Z,13.95
2023-01-01T21:43:56.366Z,13.86
2023-01-01T21:46:31.558Z,14.01
2023-01-01T21:49:18.846Z,13.84
2023-01-01T21:51:53.105Z,13.95
2023-01-01T21:54:33.647Z,13.88
2023-01-01T21:57:02.543Z,13.91
2023-01-01T21:59:33.131Z,13.97
2023-01-01T22:02:06.932Z,13.94
2023-01-01T22:04:45.283Z,13.95
2023-01-01T22:07:56.384Z,14.02
2023-01-01T22:10:20.014Z,13.98
2023-01-01T22:12:47.264Z,13.97
2023-01-01T22:15:26.588Z,14.05
2023-01-01T22:18:02.329Z,14.00
2023-01-01T22:20:33.866Z,14.02
2023-01-01T22:23:05.163Z,14.00
2023-01-01T22:25:33.294Z,13.88
2023-01-01T22:28:17.617Z,13.99
2023-01-01T22:30:44.996Z,13.92
2023-01-01T22:33:23.150Z,13.94
2023-01-01T22:35:55.572Z,13.99
2023-01-01T22:38:27.718Z,13.90
2023-01-01T22:40:55.030Z,14.03
2023-01-01T22:43:32.184Z,14.09
2023-01-01T22:46:03.684Z,14.09
2023-01-01T22:48:38.093Z,14.04
2023-01-01T22:51:14.486Z,14.07
2023-01-01T22:53:41.675Z,14.00
2023-01-01T22:56:08.690Z,14.06
2023-01-01T22:58:35.793Z,14.07
2023-01-01T23:01:02.997Z,14.05
2023-01-01T23:03:30.063Z,14.01
2023-01-01T23:05:58.926Z,14.10
2023-01-01T23:08:26.287Z,14.21
2023-01-01T23:10:53.954Z,14.23
2023-01-01T23:13:39.441Z,14.25
2023-01-01T23:16:06.499Z,14.18
2023-01-01T23:18:37.520Z,14.16
2023-01-01T23:21:14.853Z,14.20
2023-01-01T23:23:42.311Z,14.22
2023-01-01T23:26:09.628Z,14.24
2023-01-01T23:28:37.647Z,14.20
2023-01-01T23:31:07.488Z,14.16
2023-01-01T23:33:35.055Z,14.07
2023-01-01T23:36:02.724Z,14.11
2023-01-01T23:38:31.901Z,14.02
2023-01-01T23:40:58.987Z,14.00
2023-01-01T23:43:26.023Z,14.00
2023-01-01T23:45:53.786Z,13.94
2023-01-01T23:48:21.245Z,14.07
2023-01-01T23:50:48.567Z,14.03
2023-01-01T23:53:15.905Z,13.96
2023-01-01T23:55:43.505Z,13.85
2023-01-01T23:58:10.663Z,13.93
